CFB Cold Lake
CYOD : rendu visible

Aérodrome :











RETROUVEZ-NOUS SUR...

 
LOGIN :

S'inscrire | Disclaimer

   EN    FR    IT 

 









Légende :    VFR   VFR Marginal   IFR   IFR Intensif   IFR Très Intensif
Visi : 
Plafond : 
>= 8 km
>= 3000ft
5 à 8 km
1000 à 3000 ft
1500m à 5 km
500 à 1000 ft
800 à 1500m
200 à 500 ft
< 800m
< 200 ft
Symboles :   Orages  Brouillard  Fortes neiges  Fortes précipitations  Vent > 20 kt






- Altitude de l'aérodrome : 1775 ft
- Code IATA : YOD


CYOD - CFB Cold Lake

DERNIER METAR :
  • 190500Z 00000KT 15SM BKN160 M26/M31 A3056 RMK AC6 SLP416

METARs EXPIRÉS :
  • 190400Z 08002KT 15SM BKN180 M25/M30 A3055 RMK AC6 SLP412
  • 190300Z 24004KT 15SM BKN180 M25/M29 A3054 RMK AC5 SLP410

TAF TAF CYOD
Valide du 19 à 00h jusqu'au 20 à 00h UTC


182330Z 1900/1924 VRB03KT P6SM FEW070 SCT250
FM191500 12005KT P6SM FEW250 RMK NXT FCST BY 190600Z



MET'MAP, la Météo Aéronautique d'un coup d'oeil ! - Copyright ORBIFLY Décembre 2007 - Disclaimer

ORBIFLY MET'MAP TEAM :

Programmation & Développement : Alexandra Zaïnal
Sur une idée originale de : Baudouin d'Aumeries
Assistance à la programmation : Marc-Olivier Méhu
Soutien technique & logistique : Manuel Goepfert

Contact : metmap@orbifly.com




SOURCES & CREDITS :

   NOAA       Earth
Advisory